createdAt,value
2019-05-07T00:00:47.521Z,49.14
2019-05-07T00:03:18.011Z,49.19
2019-05-07T00:05:47.472Z,49.53
2019-05-07T00:08:22.777Z,49.19
2019-05-07T00:10:52.917Z,49.59
2019-05-07T00:13:23.390Z,49.82
2019-05-07T00:15:52.939Z,49.46
2019-05-07T00:18:22.928Z,49.73
2019-05-07T00:20:53.887Z,50.15
2019-05-07T00:23:24.284Z,49.74
2019-05-07T00:25:54.687Z,50.35
2019-05-07T00:28:24.101Z,50.04
2019-05-07T00:30:53.559Z,49.57
2019-05-07T00:33:23.720Z,49.54
2019-05-07T00:35:56.315Z,48.65
2019-05-07T00:38:26.731Z,48.80
2019-05-07T00:40:59.945Z,48.80
2019-05-07T00:43:32.248Z,49.19
2019-05-07T00:46:04.490Z,49.69
2019-05-07T00:48:33.880Z,49.50
2019-05-07T00:51:22.652Z,49.18
2019-05-07T00:53:52.451Z,49.43
2019-05-07T00:56:22.291Z,49.33
2019-05-07T00:58:52.734Z,49.52
2019-05-07T01:01:24.755Z,49.65
2019-05-07T01:03:54.182Z,49.77
2019-05-07T01:06:26.586Z,49.79
2019-05-07T01:08:56.856Z,49.60
2019-05-07T01:11:30.395Z,50.00
2019-05-07T01:14:02.757Z,49.87
2019-05-07T01:16:33.216Z,49.87
2019-05-07T01:19:02.606Z,49.67
2019-05-07T01:21:36.196Z,49.60
2019-05-07T01:24:06.813Z,49.71
2019-05-07T01:26:39.104Z,49.51
2019-05-07T01:29:09.501Z,50.20
2019-05-07T01:31:45.025Z,49.55
2019-05-07T01:34:23.142Z,49.32
2019-05-07T01:36:54.295Z,48.26
2019-05-07T01:39:23.710Z,47.54
2019-05-07T01:41:52.580Z,47.20
2019-05-07T01:44:23.012Z,47.14
2019-05-07T01:46:53.034Z,47.65
2019-05-07T01:49:24.164Z,47.73
2019-05-07T01:51:54.535Z,48.29
2019-05-07T01:54:25.483Z,47.84
2019-05-07T01:56:57.957Z,48.19
2019-05-07T01:59:28.379Z,48.86
2019-05-07T02:02:02.874Z,49.25
2019-05-07T02:04:39.200Z,49.39
2019-05-07T02:07:17.027Z,49.58
2019-05-07T02:09:52.233Z,49.47
2019-05-07T02:12:31.962Z,49.57
2019-05-07T02:15:02.776Z,49.99
2019-05-07T02:17:33.286Z,50.23
2019-05-07T02:20:02.829Z,50.78
2019-05-07T02:22:32.219Z,51.47
2019-05-07T02:25:04.589Z,51.92
2019-05-07T02:27:35.062Z,51.78
2019-05-07T02:30:06.444Z,52.11
2019-05-07T02:32:35.862Z,51.90
2019-05-07T02:35:09.345Z,52.09
2019-05-07T02:37:48.491Z,52.05
2019-05-07T02:40:24.884Z,51.98
2019-05-07T02:42:57.272Z,52.06
2019-05-07T02:45:29.559Z,52.47
2019-05-07T02:47:58.941Z,52.60
2019-05-07T02:50:29.081Z,52.67
2019-05-07T02:53:04.392Z,52.35
2019-05-07T02:55:39.281Z,52.33
2019-05-07T02:58:08.758Z,52.35
2019-05-07T03:00:37.738Z,52.45
2019-05-07T03:03:07.214Z,52.28
2019-05-07T03:05:36.735Z,52.29
2019-05-07T03:08:12.920Z,52.92
2019-05-07T03:10:43.464Z,52.86
2019-05-07T03:13:13.805Z,53.08
2019-05-07T03:15:43.988Z,53.04
2019-05-07T03:18:13.974Z,53.01
2019-05-07T03:20:48.724Z,53.11
2019-05-07T03:23:22.602Z,53.11
2019-05-07T03:25:54.142Z,53.02
2019-05-07T03:28:24.852Z,52.96
2019-05-07T03:31:06.418Z,53.47
2019-05-07T03:33:38.810Z,53.13
2019-05-07T03:36:15.962Z,53.10
2019-05-07T03:38:44.421Z,52.86
2019-05-07T03:41:13.862Z,53.03
2019-05-07T03:43:43.618Z,53.40
2019-05-07T03:46:15.851Z,53.16
2019-05-07T03:48:47.547Z,53.20
2019-05-07T03:51:17.052Z,52.64
2019-05-07T03:53:46.499Z,52.39
2019-05-07T03:56:18.303Z,52.39
2019-05-07T03:58:52.966Z,51.86
2019-05-07T04:01:24.081Z,51.32
2019-05-07T04:03:54.331Z,51.35
2019-05-07T04:06:24.752Z,51.36
2019-05-07T04:08:57.021Z,50.69
2019-05-07T04:11:29.118Z,49.98
2019-05-07T04:14:02.671Z,49.26
2019-05-07T04:16:33.342Z,49.51
2019-05-07T04:19:03.902Z,48.97
2019-05-07T04:21:34.385Z,48.44
2019-05-07T04:24:23.489Z,47.87
2019-05-07T04:27:06.351Z,47.85
2019-05-07T04:29:37.036Z,47.95
2019-05-07T04:32:08.073Z,47.63
2019-05-07T04:34:53.224Z,47.92
2019-05-07T04:37:24.959Z,47.72
2019-05-07T04:39:55.407Z,47.09
2019-05-07T04:42:25.343Z,43.61
2019-05-07T04:44:55.773Z,36.73
2019-05-07T04:47:38.653Z,33.02
2019-05-07T04:49:57.610Z,31.90
2019-05-07T04:52:37.692Z,29.29
2019-05-07T04:55:08.684Z,27.82
2019-05-07T04:57:38.742Z,27.19
2019-05-07T05:00:13.495Z,25.80
2019-05-07T05:02:52.971Z,25.10
2019-05-07T05:05:23.849Z,24.76
2019-05-07T05:07:54.376Z,24.52
2019-05-07T05:10:24.771Z,22.88
2019-05-07T05:12:55.388Z,21.69
2019-05-07T05:15:25.467Z,21.27
2019-05-07T05:17:55.777Z,20.27
2019-05-07T05:20:26.734Z,19.75
2019-05-07T05:23:03.806Z,20.25
2019-05-07T05:25:43.653Z,19.57
2019-05-07T05:28:13.634Z,18.55
2019-05-07T05:30:49.009Z,19.25
2019-05-07T05:33:23.498Z,17.79
2019-05-07T05:35:54.111Z,16.75
2019-05-07T05:38:26.182Z,16.50
2019-05-07T05:40:55.593Z,14.71
2019-05-07T05:43:26.514Z,14.33
2019-05-07T05:46:03.144Z,14.29
2019-05-07T05:48:34.593Z,14.99
2019-05-07T05:51:12.643Z,13.78
2019-05-07T05:53:55.807Z,14.11
2019-05-07T05:56:26.230Z,14.59
2019-05-07T05:58:56.793Z,14.10
2019-05-07T06:01:34.509Z,13.86
2019-05-07T06:04:18.703Z,13.99
2019-05-07T06:07:07.688Z,13.21
2019-05-07T06:09:32.931Z,13.72
2019-05-07T06:12:13.642Z,12.43
2019-05-07T06:15:01.792Z,13.38
2019-05-07T06:17:33.975Z,13.38
2019-05-07T06:20:07.928Z,12.19
2019-05-07T06:22:52.885Z,11.48
2019-05-07T06:25:25.516Z,10.77
2019-05-07T06:27:56.797Z,11.52
2019-05-07T06:30:27.217Z,10.93
2019-05-07T06:33:02.782Z,10.82
2019-05-07T06:35:33.041Z,11.16
2019-05-07T06:38:03.223Z,10.83
2019-05-07T06:40:38.346Z,10.92
2019-05-07T06:43:13.015Z,9.44
2019-05-07T06:45:48.024Z,10.98
2019-05-07T06:48:17.557Z,10.39
2019-05-07T06:50:58.264Z,10.10
2019-05-07T06:53:34.798Z,9.44
2019-05-07T06:56:04.841Z,9.63
2019-05-07T06:58:41.922Z,9.04
2019-05-07T07:01:28.126Z,10.45
2019-05-07T07:04:02.392Z,9.76
2019-05-07T07:06:52.530Z,8.21
2019-05-07T07:09:24.556Z,8.76
2019-05-07T07:12:03.514Z,8.57
2019-05-07T07:14:33.298Z,8.62
2019-05-07T07:17:03.801Z,8.44
2019-05-07T07:19:36.299Z,8.99
2019-05-07T07:22:07.571Z,8.46
2019-05-07T07:24:38.154Z,7.22
2019-05-07T07:27:08.986Z,7.73
2019-05-07T07:29:49.721Z,7.07
2019-05-07T07:32:23.518Z,7.51
2019-05-07T07:34:55.130Z,7.71
2019-05-07T07:37:43.095Z,6.23
2019-05-07T07:40:25.187Z,5.65
2019-05-07T07:42:56.019Z,6.04
2019-05-07T07:45:32.413Z,6.25
2019-05-07T07:48:02.381Z,7.29
2019-05-07T07:50:33.239Z,7.19
2019-05-07T07:53:03.590Z,6.88
2019-05-07T07:55:35.778Z,6.96
2019-05-07T07:58:17.346Z,6.43
2019-05-07T08:00:57.465Z,6.64
2019-05-07T08:03:27.893Z,4.93
2019-05-07T08:05:58.285Z,5.58
2019-05-07T08:08:28.684Z,5.87
2019-05-07T08:11:02.389Z,5.55
2019-05-07T08:13:32.527Z,6.61
2019-05-07T08:16:03.451Z,6.36
2019-05-07T08:18:33.080Z,5.80
2019-05-07T08:21:02.809Z,5.94
2019-05-07T08:23:33.238Z,5.49
2019-05-07T08:26:04.026Z,5.29
2019-05-07T08:28:35.685Z,5.03
2019-05-07T08:31:24.806Z,4.97
2019-05-07T08:33:55.963Z,5.64
2019-05-07T08:36:25.329Z,8.42
2019-05-07T08:38:56.462Z,12.74
2019-05-07T08:41:28.716Z,12.25
2019-05-07T08:44:11.445Z,12.72
2019-05-07T08:46:56.690Z,15.56
2019-05-07T08:49:36.803Z,17.27
2019-05-07T08:52:03.487Z,16.01
2019-05-07T08:54:34.474Z,16.52
2019-05-07T08:57:06.354Z,17.85
2019-05-07T08:59:37.387Z,18.35
2019-05-07T09:02:07.237Z,19.62
2019-05-07T09:04:37.661Z,18.69
2019-05-07T09:07:08.067Z,19.99
2019-05-07T09:09:38.995Z,19.99
2019-05-07T09:12:08.402Z,20.62
2019-05-07T09:14:37.727Z,20.19
2019-05-07T09:17:08.122Z,20.22
2019-05-07T09:19:50.387Z,21.11
2019-05-07T09:22:12.667Z,20.80
2019-05-07T09:24:43.746Z,20.91
2019-05-07T09:27:16.011Z,20.74
2019-05-07T09:29:57.281Z,20.79
2019-05-07T09:32:29.563Z,20.96
2019-05-07T09:35:16.772Z,21.61
2019-05-07T09:37:50.223Z,22.17
2019-05-07T09:40:22.401Z,22.48
2019-05-07T09:42:52.665Z,23.42
2019-05-07T09:45:22.632Z,22.52
2019-05-07T09:47:54.513Z,22.40
2019-05-07T09:50:25.069Z,21.09
2019-05-07T09:52:55.602Z,20.89
2019-05-07T09:55:25.260Z,21.12
2019-05-07T09:57:56.821Z,20.09
2019-05-07T10:00:27.923Z,19.34
2019-05-07T10:03:02.945Z,19.29
2019-05-07T10:05:35.342Z,18.53
2019-05-07T10:08:04.815Z,19.10
2019-05-07T10:10:35.206Z,18.80
2019-05-07T10:13:09.309Z,18.99
2019-05-07T10:15:41.843Z,18.76
2019-05-07T10:18:17.241Z,17.87
2019-05-07T10:20:47.900Z,18.11
2019-05-07T10:23:23.462Z,18.68
2019-05-07T10:25:54.625Z,18.17
2019-05-07T10:28:24.871Z,17.66
2019-05-07T10:30:54.038Z,17.04
2019-05-07T10:33:24.641Z,16.65
2019-05-07T10:35:56.752Z,15.77
2019-05-07T10:38:26.112Z,16.14
2019-05-07T10:40:59.603Z,16.16
2019-05-07T10:43:29.226Z,15.20
2019-05-07T10:46:16.333Z,16.48
2019-05-07T10:48:48.262Z,16.69
2019-05-07T10:51:17.730Z,17.21
2019-05-07T10:53:48.152Z,16.92
2019-05-07T10:56:18.549Z,17.02
2019-05-07T10:58:49.596Z,16.92
2019-05-07T11:01:22.402Z,16.94
2019-05-07T11:03:51.839Z,17.14
2019-05-07T11:06:22.577Z,18.20
2019-05-07T11:08:52.971Z,18.37
2019-05-07T11:11:22.452Z,18.99
2019-05-07T11:13:55.764Z,18.97
2019-05-07T11:16:24.616Z,18.97
2019-05-07T11:18:58.562Z,19.24
2019-05-07T11:21:33.637Z,18.29
2019-05-07T11:24:03.567Z,18.79
2019-05-07T11:26:34.479Z,18.96
2019-05-07T11:29:03.886Z,18.53
2019-05-07T11:31:36.333Z,18.38
2019-05-07T11:34:07.485Z,19.31
2019-05-07T11:36:38.242Z,18.13
2019-05-07T11:39:09.547Z,17.59
2019-05-07T11:41:42.303Z,17.63
2019-05-07T11:44:15.377Z,17.28
2019-05-07T11:47:04.987Z,16.91
2019-05-07T11:49:53.039Z,16.58
2019-05-07T11:52:26.465Z,17.24
2019-05-07T11:54:55.731Z,16.34
2019-05-07T11:57:26.144Z,17.23
2019-05-07T11:59:56.444Z,17.60
2019-05-07T12:02:26.863Z,16.33
2019-05-07T12:04:58.823Z,16.63
2019-05-07T12:07:29.222Z,17.31
2019-05-07T12:09:57.956Z,18.32
2019-05-07T12:12:28.360Z,18.11
2019-05-07T12:14:57.200Z,18.92
2019-05-07T12:17:27.712Z,18.92
2019-05-07T12:19:58.011Z,18.36
2019-05-07T12:22:31.806Z,18.36
2019-05-07T12:25:02.659Z,18.14
2019-05-07T12:27:32.405Z,22.53
2019-05-07T12:30:01.767Z,23.28
2019-05-07T12:32:33.904Z,23.33
2019-05-07T12:35:05.129Z,24.15
2019-05-07T12:37:35.465Z,22.38
2019-05-07T12:40:08.925Z,21.23
2019-05-07T12:42:38.489Z,21.80
2019-05-07T12:45:08.069Z,22.42
2019-05-07T12:47:36.959Z,23.00
2019-05-07T12:50:07.596Z,22.33
2019-05-07T12:52:42.460Z,21.62
2019-05-07T12:55:23.174Z,22.67
2019-05-07T12:57:53.942Z,22.59
2019-05-07T13:00:47.117Z,22.41
2019-05-07T13:03:21.850Z,22.42
2019-05-07T13:05:52.436Z,22.36
2019-05-07T13:08:23.482Z,22.29
2019-05-07T13:10:52.873Z,22.97
2019-05-07T13:13:23.439Z,23.11
2019-05-07T13:15:54.184Z,21.90
2019-05-07T13:18:22.983Z,22.46
2019-05-07T13:20:54.327Z,22.27
2019-05-07T13:23:23.843Z,22.27
2019-05-07T13:25:54.310Z,22.24
2019-05-07T13:28:24.738Z,22.24
2019-05-07T13:30:56.334Z,22.76
2019-05-07T13:33:26.984Z,23.00
2019-05-07T13:35:57.877Z,22.41
2019-05-07T13:38:32.471Z,22.41
2019-05-07T13:41:12.619Z,22.71
2019-05-07T13:44:02.859Z,21.97
2019-05-07T13:46:35.697Z,23.52
2019-05-07T13:49:06.292Z,21.48
2019-05-07T13:51:37.363Z,23.98
2019-05-07T13:54:06.849Z,22.87
2019-05-07T13:56:37.552Z,22.59
2019-05-07T13:59:13.149Z,21.23
2019-05-07T14:01:43.919Z,21.69
2019-05-07T14:04:15.290Z,23.74
2019-05-07T14:06:49.367Z,22.95
2019-05-07T14:09:23.976Z,22.96
2019-05-07T14:11:56.026Z,22.87
2019-05-07T14:14:24.962Z,23.02
2019-05-07T14:16:55.600Z,21.64
2019-05-07T14:19:28.910Z,22.28
2019-05-07T14:22:13.909Z,22.58
2019-05-07T14:24:35.257Z,23.29
2019-05-07T14:27:05.797Z,23.94
2019-05-07T14:29:36.232Z,23.01
2019-05-07T14:32:14.313Z,23.13
2019-05-07T14:35:02.136Z,23.96
2019-05-07T14:37:33.292Z,23.64
2019-05-07T14:40:03.699Z,24.02
2019-05-07T14:42:38.408Z,23.15
2019-05-07T14:45:10.128Z,24.68
2019-05-07T14:47:44.396Z,24.03
2019-05-07T14:50:12.749Z,23.22
2019-05-07T14:52:44.853Z,23.38
2019-05-07T14:55:15.738Z,22.96
2019-05-07T14:57:45.233Z,23.05
2019-05-07T15:00:15.097Z,24.91
2019-05-07T15:02:44.711Z,23.37
2019-05-07T15:05:15.693Z,25.03
2019-05-07T15:07:47.768Z,25.18
2019-05-07T15:10:17.396Z,24.10
2019-05-07T15:12:48.787Z,24.73
2019-05-07T15:15:18.568Z,24.34
2019-05-07T15:17:53.465Z,24.44
2019-05-07T15:20:23.613Z,24.14
2019-05-07T15:22:55.735Z,24.15
2019-05-07T15:25:25.259Z,24.67
2019-05-07T15:27:54.608Z,24.76
2019-05-07T15:30:26.742Z,24.72
2019-05-07T15:32:56.111Z,26.35
2019-05-07T15:35:27.037Z,27.16
2019-05-07T15:37:56.564Z,25.24
2019-05-07T15:40:26.433Z,27.22
2019-05-07T15:42:56.891Z,25.17
2019-05-07T15:45:27.615Z,25.15
2019-05-07T15:47:59.586Z,25.23
2019-05-07T15:50:32.228Z,26.71
2019-05-07T15:53:07.193Z,24.80
2019-05-07T15:55:36.766Z,24.69
2019-05-07T15:58:06.513Z,25.56
2019-05-07T16:00:38.924Z,26.04
2019-05-07T16:03:24.947Z,27.56
2019-05-07T16:05:55.305Z,27.69
2019-05-07T16:08:28.833Z,26.94
2019-05-07T16:10:59.321Z,26.60
2019-05-07T16:13:36.169Z,28.17
2019-05-07T16:16:05.390Z,26.28
2019-05-07T16:18:42.268Z,27.40
2019-05-07T16:21:12.081Z,26.69
2019-05-07T16:23:41.654Z,26.84
2019-05-07T16:26:12.899Z,27.64
2019-05-07T16:28:45.553Z,27.48
2019-05-07T16:31:16.063Z,28.21
2019-05-07T16:33:45.263Z,28.04
2019-05-07T16:36:15.622Z,27.77
2019-05-07T16:38:45.213Z,27.92
2019-05-07T16:41:15.698Z,29.40
2019-05-07T16:43:46.114Z,28.29
2019-05-07T16:46:16.510Z,27.98
2019-05-07T16:48:45.881Z,27.85
2019-05-07T16:51:16.381Z,28.03
2019-05-07T16:53:45.687Z,28.29
2019-05-07T16:56:15.330Z,29.72
2019-05-07T16:58:47.429Z,29.89
2019-05-07T17:01:18.009Z,28.59
2019-05-07T17:03:52.566Z,29.44
2019-05-07T17:06:25.038Z,28.89
2019-05-07T17:08:58.099Z,29.95
2019-05-07T17:11:32.077Z,29.17
2019-05-07T17:14:06.324Z,29.11
2019-05-07T17:16:37.051Z,29.70
2019-05-07T17:19:11.813Z,30.15
2019-05-07T17:21:43.208Z,30.85
2019-05-07T17:24:13.797Z,30.17
2019-05-07T17:26:43.196Z,30.07
2019-05-07T17:29:13.565Z,30.89
2019-05-07T17:31:42.926Z,31.69
2019-05-07T17:34:11.955Z,32.88
2019-05-07T17:36:42.192Z,31.73
2019-05-07T17:39:12.893Z,32.85
2019-05-07T17:41:43.084Z,32.96
2019-05-07T17:44:13.699Z,33.63
2019-05-07T17:46:42.971Z,35.29
2019-05-07T17:49:15.833Z,35.45
2019-05-07T17:51:45.399Z,35.45
2019-05-07T17:54:16.566Z,35.17
2019-05-07T17:56:47.109Z,34.75
2019-05-07T17:59:18.478Z,34.58
2019-05-07T18:01:52.883Z,34.88
2019-05-07T18:04:23.003Z,35.59
2019-05-07T18:06:53.413Z,35.82
2019-05-07T18:09:23.335Z,37.48
2019-05-07T18:11:52.884Z,36.21
2019-05-07T18:14:23.394Z,36.02
2019-05-07T18:16:57.021Z,36.68
2019-05-07T18:19:29.722Z,36.75
2019-05-07T18:21:59.091Z,37.06
2019-05-07T18:24:29.490Z,37.08
2019-05-07T18:27:01.882Z,37.61
2019-05-07T18:29:32.621Z,38.65
2019-05-07T18:32:04.673Z,39.37
2019-05-07T18:34:35.298Z,39.60
2019-05-07T18:37:07.442Z,40.70
2019-05-07T18:39:37.977Z,41.83
2019-05-07T18:42:07.493Z,42.38
2019-05-07T18:44:37.049Z,42.92
2019-05-07T18:47:07.749Z,43.50
2019-05-07T18:49:38.552Z,47.18
2019-05-07T18:52:09.064Z,47.47
2019-05-07T18:54:39.364Z,47.69
2019-05-07T18:57:11.783Z,47.43
2019-05-07T18:59:42.355Z,47.24
2019-05-07T19:02:11.866Z,47.28
2019-05-07T19:04:42.345Z,48.21
2019-05-07T19:07:13.293Z,48.34
2019-05-07T19:09:47.742Z,48.71
2019-05-07T19:12:19.543Z,48.30
2019-05-07T19:14:48.874Z,47.78
2019-05-07T19:17:18.297Z,49.56
2019-05-07T19:19:47.710Z,50.77
2019-05-07T19:22:18.295Z,51.30
2019-05-07T19:24:48.637Z,51.70
2019-05-07T19:27:17.455Z,50.76
2019-05-07T19:29:49.560Z,49.38
2019-05-07T19:32:19.107Z,51.39
2019-05-07T19:34:53.276Z,49.36
2019-05-07T19:37:23.363Z,49.38
2019-05-07T19:39:52.732Z,52.17
2019-05-07T19:42:23.231Z,51.87
2019-05-07T19:44:53.639Z,51.76
2019-05-07T19:47:26.174Z,51.56
2019-05-07T19:49:57.752Z,52.29
2019-05-07T19:52:27.104Z,51.92
2019-05-07T19:55:01.464Z,52.41
2019-05-07T19:57:34.170Z,52.79
2019-05-07T20:00:03.905Z,53.65
2019-05-07T20:02:35.980Z,54.53
2019-05-07T20:05:07.858Z,55.33
2019-05-07T20:07:38.256Z,56.03
2019-05-07T20:10:08.972Z,57.23
2019-05-07T20:12:39.484Z,58.70
2019-05-07T20:15:09.893Z,58.79
2019-05-07T20:17:41.943Z,58.00
2019-05-07T20:20:12.491Z,56.86
2019-05-07T20:22:43.092Z,58.00
2019-05-07T20:25:18.666Z,57.12
2019-05-07T20:27:44.630Z,58.14
2019-05-07T20:30:15.143Z,58.91
2019-05-07T20:32:45.545Z,60.54
2019-05-07T20:35:17.295Z,61.26
2019-05-07T20:37:46.791Z,61.75
2019-05-07T20:40:22.577Z,61.79
2019-05-07T20:42:52.561Z,62.07
2019-05-07T20:45:23.856Z,61.16
2019-05-07T20:47:54.827Z,62.17
2019-05-07T20:50:24.172Z,62.21
2019-05-07T20:52:54.638Z,63.05
2019-05-07T20:55:33.198Z,62.67
2019-05-07T20:58:03.071Z,62.98
2019-05-07T21:00:35.677Z,62.41
2019-05-07T21:03:24.483Z,62.12
2019-05-07T21:05:54.288Z,61.95
2019-05-07T21:08:24.961Z,62.94
2019-05-07T21:10:54.366Z,63.49
2019-05-07T21:13:30.895Z,64.24
2019-05-07T21:15:55.773Z,64.09
2019-05-07T21:18:27.314Z,63.52
2019-05-07T21:20:56.576Z,63.30
2019-05-07T21:23:28.346Z,63.04
2019-05-07T21:25:57.717Z,63.16
2019-05-07T21:28:28.879Z,63.21
2019-05-07T21:30:58.253Z,64.46
2019-05-07T21:33:28.602Z,64.31
2019-05-07T21:36:02.878Z,64.32
2019-05-07T21:38:32.981Z,64.15
2019-05-07T21:41:03.469Z,64.17
2019-05-07T21:43:32.848Z,63.86
2019-05-07T21:46:02.495Z,63.87
2019-05-07T21:48:33.037Z,64.45
2019-05-07T21:51:04.470Z,64.67
2019-05-07T21:53:38.422Z,65.35
2019-05-07T21:56:08.868Z,65.61
2019-05-07T21:58:40.906Z,65.41
2019-05-07T22:01:17.059Z,65.53
2019-05-07T22:03:49.342Z,65.59
2019-05-07T22:06:22.782Z,65.55
2019-05-07T22:08:54.693Z,66.09
2019-05-07T22:11:25.467Z,66.46
2019-05-07T22:13:55.147Z,66.04
2019-05-07T22:16:25.664Z,65.62
2019-05-07T22:18:56.061Z,65.49
2019-05-07T22:21:26.472Z,65.70
2019-05-07T22:23:55.769Z,66.42
2019-05-07T22:26:26.687Z,66.11
2019-05-07T22:28:57.263Z,66.34
2019-05-07T22:31:34.052Z,66.81
2019-05-07T22:34:08.621Z,66.75
2019-05-07T22:36:39.025Z,66.43
2019-05-07T22:39:09.173Z,67.10
2019-05-07T22:41:38.501Z,67.58
2019-05-07T22:44:12.010Z,67.06
2019-05-07T22:46:42.129Z,66.94
2019-05-07T22:49:12.370Z,67.50
2019-05-07T22:51:41.926Z,68.90
2019-05-07T22:54:12.286Z,69.30
2019-05-07T22:56:59.132Z,69.67
2019-05-07T22:59:27.949Z,69.66
2019-05-07T23:01:57.299Z,69.92
2019-05-07T23:04:26.589Z,69.74
2019-05-07T23:06:55.952Z,69.41
2019-05-07T23:09:26.412Z,69.55
2019-05-07T23:11:55.674Z,69.55
2019-05-07T23:14:26.190Z,69.58
2019-05-07T23:16:55.674Z,70.18
2019-05-07T23:19:25.048Z,69.93
2019-05-07T23:21:54.478Z,69.20
2019-05-07T23:24:25.064Z,69.29
2019-05-07T23:26:55.389Z,68.94
2019-05-07T23:29:25.792Z,69.05
2019-05-07T23:31:55.415Z,68.33
2019-05-07T23:34:24.673Z,68.33
2019-05-07T23:36:55.131Z,67.83
2019-05-07T23:39:26.316Z,67.28
2019-05-07T23:41:56.786Z,67.08
2019-05-07T23:44:26.182Z,67.08
2019-05-07T23:46:54.921Z,67.48
2019-05-07T23:49:25.330Z,67.55
2019-05-07T23:51:55.686Z,67.51
2019-05-07T23:54:26.522Z,68.50
2019-05-07T23:57:06.020Z,68.39
2019-05-07T23:59:26.949Z,68.45
